sensor_id;sensor_type;location;lat;lon;timestamp;P1;durP1;ratioP1;P2;durP2;ratioP2
18754;SDS011;35061;47.664;9.166;2023-07-16T00:00:27;5.20;;;4.40;;
18754;SDS011;35061;47.664;9.166;2023-07-16T00:02:55;5.57;;;4.72;;
18754;SDS011;35061;47.664;9.166;2023-07-16T00:05:23;5.68;;;3.90;;
18754;SDS011;35061;47.664;9.166;2023-07-16T00:07:51;4.68;;;3.33;;
18754;SDS011;35061;47.664;9.166;2023-07-16T00:10:28;4.15;;;3.00;;
18754;SDS011;35061;47.664;9.166;2023-07-16T00:12:56;3.75;;;3.30;;
18754;SDS011;35061;47.664;9.166;2023-07-16T00:15:24;3.72;;;3.10;;
18754;SDS011;35061;47.664;9.166;2023-07-16T00:17:54;3.92;;;3.05;;
18754;SDS011;35061;47.664;9.166;2023-07-16T00:20:22;3.35;;;3.00;;
18754;SDS011;35061;47.664;9.166;2023-07-16T00:22:53;2.90;;;2.70;;
18754;SDS011;35061;47.664;9.166;2023-07-16T00:25:24;3.33;;;3.03;;
18754;SDS011;35061;47.664;9.166;2023-07-16T00:27:52;3.87;;;2.62;;
18754;SDS011;35061;47.664;9.166;2023-07-16T00:30:20;2.72;;;2.20;;
18754;SDS011;35061;47.664;9.166;2023-07-16T00:32:52;2.40;;;2.00;;
18754;SDS011;35061;47.664;9.166;2023-07-16T00:35:23;3.58;;;2.08;;
18754;SDS011;35061;47.664;9.166;2023-07-16T00:37:51;3.28;;;1.90;;
18754;SDS011;35061;47.664;9.166;2023-07-16T00:40:19;1.60;;;1.50;;
18754;SDS011;35061;47.664;9.166;2023-07-16T00:42:47;2.03;;;1.85;;
18754;SDS011;35061;47.664;9.166;2023-07-16T00:45:15;1.58;;;1.48;;
18754;SDS011;35061;47.664;9.166;2023-07-16T00:47:43;1.73;;;1.60;;
18754;SDS011;35061;47.664;9.166;2023-07-16T00:50:12;1.67;;;1.20;;
18754;SDS011;35061;47.664;9.166;2023-07-16T00:52:40;1.80;;;1.70;;
18754;SDS011;35061;47.664;9.166;2023-07-16T00:55:09;1.52;;;1.25;;
18754;SDS011;35061;47.664;9.166;2023-07-16T00:57:38;1.20;;;1.10;;
18754;SDS011;35061;47.664;9.166;2023-07-16T01:00:07;1.20;;;1.10;;
18754;SDS011;35061;47.664;9.166;2023-07-16T01:02:37;1.75;;;1.33;;
18754;SDS011;35061;47.664;9.166;2023-07-16T01:05:05;4.28;;;1.83;;
18754;SDS011;35061;47.664;9.166;2023-07-16T01:07:33;1.83;;;1.25;;
18754;SDS011;35061;47.664;9.166;2023-07-16T01:10:04;1.50;;;1.40;;
18754;SDS011;35061;47.664;9.166;2023-07-16T01:12:33;2.22;;;1.50;;
18754;SDS011;35061;47.664;9.166;2023-07-16T01:15:01;2.47;;;1.37;;
18754;SDS011;35061;47.664;9.166;2023-07-16T01:17:29;2.72;;;1.52;;
18754;SDS011;35061;47.664;9.166;2023-07-16T01:19:57;1.62;;;1.30;;
18754;SDS011;35061;47.664;9.166;2023-07-16T01:22:27;1.67;;;1.50;;
18754;SDS011;35061;47.664;9.166;2023-07-16T01:28:17;1.95;;;1.70;;
18754;SDS011;35061;47.664;9.166;2023-07-16T01:31:17;1.62;;;1.52;;
18754;SDS011;35061;47.664;9.166;2023-07-16T01:33:45;1.27;;;1.17;;
18754;SDS011;35061;47.664;9.166;2023-07-16T01:36:14;1.77;;;1.67;;
18754;SDS011;35061;47.664;9.166;2023-07-16T01:38:44;2.20;;;1.50;;
18754;SDS011;35061;47.664;9.166;2023-07-16T01:41:12;3.15;;;1.70;;
18754;SDS011;35061;47.664;9.166;2023-07-16T01:43:40;1.77;;;1.50;;
18754;SDS011;35061;47.664;9.166;2023-07-16T01:46:08;3.22;;;1.27;;
18754;SDS011;35061;47.664;9.166;2023-07-16T01:48:36;3.33;;;1.65;;
18754;SDS011;35061;47.664;9.166;2023-07-16T01:51:05;1.60;;;1.50;;
18754;SDS011;35061;47.664;9.166;2023-07-16T01:53:33;1.48;;;1.30;;
18754;SDS011;35061;47.664;9.166;2023-07-16T01:56:01;1.90;;;1.15;;
18754;SDS011;35061;47.664;9.166;2023-07-16T01:58:29;1.50;;;1.40;;
18754;SDS011;35061;47.664;9.166;2023-07-16T02:00:58;1.80;;;1.20;;
18754;SDS011;35061;47.664;9.166;2023-07-16T02:03:26;2.45;;;1.60;;
18754;SDS011;35061;47.664;9.166;2023-07-16T02:05:54;1.37;;;1.27;;
18754;SDS011;35061;47.664;9.166;2023-07-16T02:08:22;1.90;;;1.25;;
18754;SDS011;35061;47.664;9.166;2023-07-16T02:10:50;2.20;;;1.60;;
18754;SDS011;35061;47.664;9.166;2023-07-16T02:13:18;2.08;;;1.48;;
18754;SDS011;35061;47.664;9.166;2023-07-16T02:15:46;1.90;;;1.70;;
18754;SDS011;35061;47.664;9.166;2023-07-16T02:18:14;1.25;;;1.15;;
18754;SDS011;35061;47.664;9.166;2023-07-16T02:20:43;1.65;;;1.55;;
18754;SDS011;35061;47.664;9.166;2023-07-16T02:23:11;1.95;;;1.37;;
18754;SDS011;35061;47.664;9.166;2023-07-16T02:25:38;1.40;;;1.30;;
18754;SDS011;35061;47.664;9.166;2023-07-16T02:28:06;2.17;;;1.30;;
18754;SDS011;35061;47.664;9.166;2023-07-16T02:30:34;1.83;;;1.70;;
18754;SDS011;35061;47.664;9.166;2023-07-16T02:33:02;1.62;;;1.20;;
18754;SDS011;35061;47.664;9.166;2023-07-16T02:35:30;1.92;;;1.35;;
18754;SDS011;35061;47.664;9.166;2023-07-16T02:37:58;11.77;;;2.10;;
18754;SDS011;35061;47.664;9.166;2023-07-16T02:40:26;2.50;;;1.30;;
18754;SDS011;35061;47.664;9.166;2023-07-16T02:42:54;1.40;;;1.30;;
18754;SDS011;35061;47.664;9.166;2023-07-16T02:45:22;2.28;;;1.37;;
18754;SDS011;35061;47.664;9.166;2023-07-16T02:47:50;1.67;;;1.52;;
18754;SDS011;35061;47.664;9.166;2023-07-16T02:50:18;1.40;;;1.30;;
18754;SDS011;35061;47.664;9.166;2023-07-16T02:52:46;1.45;;;1.35;;
18754;SDS011;35061;47.664;9.166;2023-07-16T02:55:14;1.83;;;1.20;;
18754;SDS011;35061;47.664;9.166;2023-07-16T02:57:42;1.48;;;1.12;;
18754;SDS011;35061;47.664;9.166;2023-07-16T03:00:10;2.20;;;1.30;;
18754;SDS011;35061;47.664;9.166;2023-07-16T03:02:38;1.73;;;1.52;;
18754;SDS011;35061;47.664;9.166;2023-07-16T03:05:06;1.60;;;1.05;;
18754;SDS011;35061;47.664;9.166;2023-07-16T03:07:35;1.40;;;1.30;;
18754;SDS011;35061;47.664;9.166;2023-07-16T03:10:03;1.60;;;1.30;;
18754;SDS011;35061;47.664;9.166;2023-07-16T03:12:32;1.50;;;1.25;;
18754;SDS011;35061;47.664;9.166;2023-07-16T03:15:00;6.57;;;1.80;;
18754;SDS011;35061;47.664;9.166;2023-07-16T03:17:28;3.53;;;2.08;;
18754;SDS011;35061;47.664;9.166;2023-07-16T03:19:56;1.87;;;1.75;;
18754;SDS011;35061;47.664;9.166;2023-07-16T03:22:23;3.55;;;1.48;;
18754;SDS011;35061;47.664;9.166;2023-07-16T03:24:52;2.25;;;1.77;;
18754;SDS011;35061;47.664;9.166;2023-07-16T03:27:20;2.97;;;1.80;;
18754;SDS011;35061;47.664;9.166;2023-07-16T03:29:50;2.15;;;1.30;;
18754;SDS011;35061;47.664;9.166;2023-07-16T03:32:18;1.98;;;1.62;;
18754;SDS011;35061;47.664;9.166;2023-07-16T03:34:46;2.97;;;1.77;;
18754;SDS011;35061;47.664;9.166;2023-07-16T03:37:14;2.25;;;1.50;;
18754;SDS011;35061;47.664;9.166;2023-07-16T03:39:42;1.98;;;1.80;;
18754;SDS011;35061;47.664;9.166;2023-07-16T03:42:10;1.95;;;1.60;;
18754;SDS011;35061;47.664;9.166;2023-07-16T03:44:38;2.45;;;1.50;;
18754;SDS011;35061;47.664;9.166;2023-07-16T03:47:06;3.65;;;1.77;;
18754;SDS011;35061;47.664;9.166;2023-07-16T03:49:34;4.10;;;2.05;;
18754;SDS011;35061;47.664;9.166;2023-07-16T03:52:02;2.37;;;1.90;;
18754;SDS011;35061;47.664;9.166;2023-07-16T03:54:30;2.42;;;1.95;;
18754;SDS011;35061;47.664;9.166;2023-07-16T03:56:58;2.97;;;1.90;;
18754;SDS011;35061;47.664;9.166;2023-07-16T03:59:26;2.75;;;2.10;;
18754;SDS011;35061;47.664;9.166;2023-07-16T04:01:54;2.05;;;1.77;;
18754;SDS011;35061;47.664;9.166;2023-07-16T04:04:22;5.40;;;2.25;;
18754;SDS011;35061;47.664;9.166;2023-07-16T04:06:50;2.25;;;2.05;;
18754;SDS011;35061;47.664;9.166;2023-07-16T04:09:18;2.58;;;1.48;;
18754;SDS011;35061;47.664;9.166;2023-07-16T04:11:46;1.80;;;1.62;;
18754;SDS011;35061;47.664;9.166;2023-07-16T04:14:14;1.75;;;1.65;;
18754;SDS011;35061;47.664;9.166;2023-07-16T04:16:42;2.83;;;2.10;;
18754;SDS011;35061;47.664;9.166;2023-07-16T04:19:10;1.90;;;1.65;;
18754;SDS011;35061;47.664;9.166;2023-07-16T04:21:38;1.60;;;1.50;;
18754;SDS011;35061;47.664;9.166;2023-07-16T04:24:06;2.22;;;1.48;;
18754;SDS011;35061;47.664;9.166;2023-07-16T04:26:34;2.20;;;2.00;;
18754;SDS011;35061;47.664;9.166;2023-07-16T04:29:03;2.58;;;1.90;;
18754;SDS011;35061;47.664;9.166;2023-07-16T04:31:31;4.75;;;1.90;;
18754;SDS011;35061;47.664;9.166;2023-07-16T04:33:59;2.55;;;1.67;;
18754;SDS011;35061;47.664;9.166;2023-07-16T04:36:27;1.55;;;1.45;;
18754;SDS011;35061;47.664;9.166;2023-07-16T04:38:55;2.33;;;1.83;;
18754;SDS011;35061;47.664;9.166;2023-07-16T04:41:23;2.12;;;1.90;;
18754;SDS011;35061;47.664;9.166;2023-07-16T04:43:51;1.50;;;1.40;;
18754;SDS011;35061;47.664;9.166;2023-07-16T04:46:19;2.95;;;2.03;;
18754;SDS011;35061;47.664;9.166;2023-07-16T04:48:47;1.85;;;1.75;;
18754;SDS011;35061;47.664;9.166;2023-07-16T04:51:15;3.28;;;1.90;;
18754;SDS011;35061;47.664;9.166;2023-07-16T04:53:43;1.73;;;1.62;;
18754;SDS011;35061;47.664;9.166;2023-07-16T04:56:12;1.77;;;1.60;;
18754;SDS011;35061;47.664;9.166;2023-07-16T04:58:41;2.40;;;1.60;;
18754;SDS011;35061;47.664;9.166;2023-07-16T05:01:10;1.70;;;1.60;;
18754;SDS011;35061;47.664;9.166;2023-07-16T05:03:38;2.00;;;1.80;;
18754;SDS011;35061;47.664;9.166;2023-07-16T05:06:06;3.33;;;1.62;;
18754;SDS011;35061;47.664;9.166;2023-07-16T05:08:34;1.60;;;1.50;;
18754;SDS011;35061;47.664;9.166;2023-07-16T05:11:02;1.73;;;1.62;;
18754;SDS011;35061;47.664;9.166;2023-07-16T05:13:30;1.52;;;1.40;;
18754;SDS011;35061;47.664;9.166;2023-07-16T05:15:58;1.70;;;1.60;;
18754;SDS011;35061;47.664;9.166;2023-07-16T05:18:26;2.53;;;1.87;;
18754;SDS011;35061;47.664;9.166;2023-07-16T05:20:54;2.00;;;1.40;;
18754;SDS011;35061;47.664;9.166;2023-07-16T05:23:22;1.73;;;1.50;;
18754;SDS011;35061;47.664;9.166;2023-07-16T05:25:50;1.62;;;1.40;;
18754;SDS011;35061;47.664;9.166;2023-07-16T05:28:18;2.12;;;1.52;;
18754;SDS011;35061;47.664;9.166;2023-07-16T05:30:46;1.33;;;1.20;;
18754;SDS011;35061;47.664;9.166;2023-07-16T05:33:15;2.03;;;1.62;;
18754;SDS011;35061;47.664;9.166;2023-07-16T05:35:43;1.35;;;1.23;;
18754;SDS011;35061;47.664;9.166;2023-07-16T05:38:16;1.73;;;1.50;;
18754;SDS011;35061;47.664;9.166;2023-07-16T05:40:44;2.20;;;1.50;;
18754;SDS011;35061;47.664;9.166;2023-07-16T05:43:12;1.60;;;1.40;;
18754;SDS011;35061;47.664;9.166;2023-07-16T05:45:42;2.15;;;1.40;;
18754;SDS011;35061;47.664;9.166;2023-07-16T05:48:10;1.58;;;1.48;;
18754;SDS011;35061;47.664;9.166;2023-07-16T05:50:39;1.52;;;1.42;;
18754;SDS011;35061;47.664;9.166;2023-07-16T05:53:07;2.08;;;1.60;;
18754;SDS011;35061;47.664;9.166;2023-07-16T05:55:35;1.65;;;1.37;;
18754;SDS011;35061;47.664;9.166;2023-07-16T05:58:03;1.60;;;1.50;;
18754;SDS011;35061;47.664;9.166;2023-07-16T06:00:31;1.87;;;1.40;;
18754;SDS011;35061;47.664;9.166;2023-07-16T06:02:59;1.67;;;1.58;;
18754;SDS011;35061;47.664;9.166;2023-07-16T06:05:28;1.70;;;1.60;;
18754;SDS011;35061;47.664;9.166;2023-07-16T06:08:01;5.57;;;1.62;;
18754;SDS011;35061;47.664;9.166;2023-07-16T06:10:29;1.98;;;1.55;;
18754;SDS011;35061;47.664;9.166;2023-07-16T06:12:57;2.15;;;1.52;;
18754;SDS011;35061;47.664;9.166;2023-07-16T06:15:25;2.83;;;1.60;;
18754;SDS011;35061;47.664;9.166;2023-07-16T06:17:53;1.87;;;1.50;;
18754;SDS011;35061;47.664;9.166;2023-07-16T06:20:21;1.50;;;1.40;;
18754;SDS011;35061;47.664;9.166;2023-07-16T06:22:49;2.95;;;1.52;;
18754;SDS011;35061;47.664;9.166;2023-07-16T06:25:17;2.20;;;1.50;;
18754;SDS011;35061;47.664;9.166;2023-07-16T06:27:45;1.75;;;1.65;;
18754;SDS011;35061;47.664;9.166;2023-07-16T06:30:13;2.12;;;1.60;;
18754;SDS011;35061;47.664;9.166;2023-07-16T06:32:41;1.67;;;1.23;;
18754;SDS011;35061;47.664;9.166;2023-07-16T06:35:09;3.12;;;2.05;;
18754;SDS011;35061;47.664;9.166;2023-07-16T06:37:37;1.73;;;1.58;;
18754;SDS011;35061;47.664;9.166;2023-07-16T06:40:05;1.85;;;1.75;;
18754;SDS011;35061;47.664;9.166;2023-07-16T06:42:34;3.22;;;1.87;;
18754;SDS011;35061;47.664;9.166;2023-07-16T06:45:02;2.85;;;1.85;;
18754;SDS011;35061;47.664;9.166;2023-07-16T06:47:30;2.95;;;2.00;;
18754;SDS011;35061;47.664;9.166;2023-07-16T06:49:59;1.85;;;1.58;;
18754;SDS011;35061;47.664;9.166;2023-07-16T06:52:27;1.60;;;1.40;;
18754;SDS011;35061;47.664;9.166;2023-07-16T06:54:55;1.37;;;1.27;;
18754;SDS011;35061;47.664;9.166;2023-07-16T06:57:23;1.67;;;1.50;;
18754;SDS011;35061;47.664;9.166;2023-07-16T06:59:51;1.40;;;1.25;;
18754;SDS011;35061;47.664;9.166;2023-07-16T07:02:19;1.40;;;1.30;;
18754;SDS011;35061;47.664;9.166;2023-07-16T07:04:48;1.62;;;1.50;;
18754;SDS011;35061;47.664;9.166;2023-07-16T07:07:16;1.40;;;1.30;;
18754;SDS011;35061;47.664;9.166;2023-07-16T07:09:47;2.20;;;1.50;;
18754;SDS011;35061;47.664;9.166;2023-07-16T07:12:16;1.52;;;1.27;;
18754;SDS011;35061;47.664;9.166;2023-07-16T07:14:44;1.55;;;1.17;;
18754;SDS011;35061;47.664;9.166;2023-07-16T07:17:12;2.03;;;1.17;;
18754;SDS011;35061;47.664;9.166;2023-07-16T07:19:40;1.42;;;1.30;;
18754;SDS011;35061;47.664;9.166;2023-07-16T07:22:09;1.52;;;1.27;;
18754;SDS011;35061;47.664;9.166;2023-07-16T07:24:37;1.75;;;1.45;;
18754;SDS011;35061;47.664;9.166;2023-07-16T07:27:05;2.47;;;1.30;;
18754;SDS011;35061;47.664;9.166;2023-07-16T07:29:33;1.62;;;1.30;;
18754;SDS011;35061;47.664;9.166;2023-07-16T07:32:01;2.67;;;1.60;;
18754;SDS011;35061;47.664;9.166;2023-07-16T07:34:29;1.52;;;1.40;;
18754;SDS011;35061;47.664;9.166;2023-07-16T07:36:57;2.67;;;1.52;;
18754;SDS011;35061;47.664;9.166;2023-07-16T07:39:25;2.12;;;1.40;;
18754;SDS011;35061;47.664;9.166;2023-07-16T07:41:53;2.97;;;1.65;;
18754;SDS011;35061;47.664;9.166;2023-07-16T07:44:21;1.85;;;1.33;;
18754;SDS011;35061;47.664;9.166;2023-07-16T07:46:49;2.37;;;1.52;;
18754;SDS011;35061;47.664;9.166;2023-07-16T07:49:17;3.70;;;1.52;;
18754;SDS011;35061;47.664;9.166;2023-07-16T07:51:45;3.75;;;1.50;;
18754;SDS011;35061;47.664;9.166;2023-07-16T07:54:15;1.58;;;1.33;;
18754;SDS011;35061;47.664;9.166;2023-07-16T07:56:45;2.97;;;1.87;;
18754;SDS011;35061;47.664;9.166;2023-07-16T07:59:13;2.40;;;1.77;;
18754;SDS011;35061;47.664;9.166;2023-07-16T08:01:41;2.53;;;1.73;;
18754;SDS011;35061;47.664;9.166;2023-07-16T08:04:09;2.62;;;1.67;;
18754;SDS011;35061;47.664;9.166;2023-07-16T08:06:37;2.12;;;1.50;;
18754;SDS011;35061;47.664;9.166;2023-07-16T08:09:05;3.05;;;1.50;;
18754;SDS011;35061;47.664;9.166;2023-07-16T08:11:33;2.45;;;1.48;;
18754;SDS011;35061;47.664;9.166;2023-07-16T08:14:01;1.60;;;1.30;;
18754;SDS011;35061;47.664;9.166;2023-07-16T08:16:29;2.12;;;1.45;;
18754;SDS011;35061;47.664;9.166;2023-07-16T08:18:57;2.65;;;1.52;;
18754;SDS011;35061;47.664;9.166;2023-07-16T08:21:25;2.35;;;1.27;;
18754;SDS011;35061;47.664;9.166;2023-07-16T08:23:53;2.35;;;1.87;;
18754;SDS011;35061;47.664;9.166;2023-07-16T08:26:21;2.30;;;1.55;;
18754;SDS011;35061;47.664;9.166;2023-07-16T08:28:49;3.28;;;2.10;;
18754;SDS011;35061;47.664;9.166;2023-07-16T08:31:17;2.35;;;1.50;;
18754;SDS011;35061;47.664;9.166;2023-07-16T08:33:45;1.50;;;1.33;;
18754;SDS011;35061;47.664;9.166;2023-07-16T08:36:13;2.95;;;1.40;;
18754;SDS011;35061;47.664;9.166;2023-07-16T08:38:41;2.58;;;1.50;;
18754;SDS011;35061;47.664;9.166;2023-07-16T08:41:09;3.30;;;1.35;;
18754;SDS011;35061;47.664;9.166;2023-07-16T08:43:37;2.22;;;1.17;;
18754;SDS011;35061;47.664;9.166;2023-07-16T08:46:07;3.60;;;1.65;;
18754;SDS011;35061;47.664;9.166;2023-07-16T08:48:36;2.03;;;1.30;;
18754;SDS011;35061;47.664;9.166;2023-07-16T08:51:04;3.50;;;1.50;;
18754;SDS011;35061;47.664;9.166;2023-07-16T08:53:34;2.22;;;1.67;;
18754;SDS011;35061;47.664;9.166;2023-07-16T08:56:03;2.78;;;1.60;;
18754;SDS011;35061;47.664;9.166;2023-07-16T08:58:33;2.35;;;1.60;;
18754;SDS011;35061;47.664;9.166;2023-07-16T09:01:01;2.58;;;2.08;;
18754;SDS011;35061;47.664;9.166;2023-07-16T09:03:30;2.90;;;1.37;;
18754;SDS011;35061;47.664;9.166;2023-07-16T09:05:58;1.80;;;1.48;;
18754;SDS011;35061;47.664;9.166;2023-07-16T09:08:26;2.60;;;1.75;;
18754;SDS011;35061;47.664;9.166;2023-07-16T09:10:56;4.50;;;1.70;;
18754;SDS011;35061;47.664;9.166;2023-07-16T09:13:25;1.80;;;1.60;;
18754;SDS011;35061;47.664;9.166;2023-07-16T09:15:55;2.40;;;1.77;;
18754;SDS011;35061;47.664;9.166;2023-07-16T09:18:25;3.20;;;1.50;;
18754;SDS011;35061;47.664;9.166;2023-07-16T09:20:55;1.70;;;1.37;;
18754;SDS011;35061;47.664;9.166;2023-07-16T09:23:29;2.78;;;1.60;;
18754;SDS011;35061;47.664;9.166;2023-07-16T09:25:58;1.87;;;1.40;;
18754;SDS011;35061;47.664;9.166;2023-07-16T09:28:26;2.37;;;1.75;;
18754;SDS011;35061;47.664;9.166;2023-07-16T09:30:54;3.50;;;1.92;;
18754;SDS011;35061;47.664;9.166;2023-07-16T09:33:22;2.17;;;1.52;;
18754;SDS011;35061;47.664;9.166;2023-07-16T09:35:53;1.85;;;1.30;;
18754;SDS011;35061;47.664;9.166;2023-07-16T09:38:21;2.53;;;1.62;;
18754;SDS011;35061;47.664;9.166;2023-07-16T09:40:52;2.47;;;1.77;;
18754;SDS011;35061;47.664;9.166;2023-07-16T09:43:20;2.97;;;1.45;;
18754;SDS011;35061;47.664;9.166;2023-07-16T09:45:49;1.60;;;1.50;;
18754;SDS011;35061;47.664;9.166;2023-07-16T09:48:17;1.58;;;1.23;;
18754;SDS011;35061;47.664;9.166;2023-07-16T09:50:49;3.72;;;1.92;;
18754;SDS011;35061;47.664;9.166;2023-07-16T09:53:20;2.40;;;1.65;;
18754;SDS011;35061;47.664;9.166;2023-07-16T09:55:52;2.72;;;1.55;;
18754;SDS011;35061;47.664;9.166;2023-07-16T09:58:20;2.10;;;1.62;;
18754;SDS011;35061;47.664;9.166;2023-07-16T10:00:50;2.87;;;1.95;;
18754;SDS011;35061;47.664;9.166;2023-07-16T10:03:19;2.95;;;1.45;;
18754;SDS011;35061;47.664;9.166;2023-07-16T10:05:47;2.80;;;1.67;;
18754;SDS011;35061;47.664;9.166;2023-07-16T10:08:16;2.35;;;1.50;;
18754;SDS011;35061;47.664;9.166;2023-07-16T10:10:52;2.08;;;1.50;;
18754;SDS011;35061;47.664;9.166;2023-07-16T10:13:24;2.25;;;1.50;;
18754;SDS011;35061;47.664;9.166;2023-07-16T10:15:56;2.45;;;1.62;;
18754;SDS011;35061;47.664;9.166;2023-07-16T10:18:26;1.90;;;1.48;;
18754;SDS011;35061;47.664;9.166;2023-07-16T10:21:08;2.60;;;1.90;;
18754;SDS011;35061;47.664;9.166;2023-07-16T10:23:40;4.20;;;1.77;;
18754;SDS011;35061;47.664;9.166;2023-07-16T10:26:11;4.10;;;1.67;;
18754;SDS011;35061;47.664;9.166;2023-07-16T10:28:45;3.42;;;1.70;;
18754;SDS011;35061;47.664;9.166;2023-07-16T10:31:21;3.20;;;1.60;;
18754;SDS011;35061;47.664;9.166;2023-07-16T10:33:59;2.65;;;1.83;;
18754;SDS011;35061;47.664;9.166;2023-07-16T10:36:28;2.03;;;1.50;;
18754;SDS011;35061;47.664;9.166;2023-07-16T10:39:03;2.22;;;1.50;;
18754;SDS011;35061;47.664;9.166;2023-07-16T10:41:31;2.33;;;1.60;;
18754;SDS011;35061;47.664;9.166;2023-07-16T10:44:00;2.03;;;1.70;;
18754;SDS011;35061;47.664;9.166;2023-07-16T10:46:30;2.28;;;1.87;;
18754;SDS011;35061;47.664;9.166;2023-07-16T10:49:00;1.92;;;1.73;;
18754;SDS011;35061;47.664;9.166;2023-07-16T10:51:28;2.03;;;1.40;;
18754;SDS011;35061;47.664;9.166;2023-07-16T10:53:57;2.00;;;1.60;;
18754;SDS011;35061;47.664;9.166;2023-07-16T10:56:25;2.35;;;1.55;;
18754;SDS011;35061;47.664;9.166;2023-07-16T10:58:53;2.42;;;1.70;;
18754;SDS011;35061;47.664;9.166;2023-07-16T11:01:22;3.67;;;1.62;;
18754;SDS011;35061;47.664;9.166;2023-07-16T11:03:50;2.60;;;1.60;;
18754;SDS011;35061;47.664;9.166;2023-07-16T11:06:19;2.30;;;1.50;;
18754;SDS011;35061;47.664;9.166;2023-07-16T11:08:48;1.90;;;1.67;;
18754;SDS011;35061;47.664;9.166;2023-07-16T11:11:27;1.62;;;1.25;;
18754;SDS011;35061;47.664;9.166;2023-07-16T11:13:56;1.80;;;1.40;;
18754;SDS011;35061;47.664;9.166;2023-07-16T11:16:24;2.47;;;1.75;;
18754;SDS011;35061;47.664;9.166;2023-07-16T11:18:52;2.45;;;1.65;;
18754;SDS011;35061;47.664;9.166;2023-07-16T11:21:20;1.58;;;1.45;;
18754;SDS011;35061;47.664;9.166;2023-07-16T11:23:48;1.30;;;1.20;;
18754;SDS011;35061;47.664;9.166;2023-07-16T11:26:16;2.72;;;1.35;;
18754;SDS011;35061;47.664;9.166;2023-07-16T11:28:44;2.08;;;1.87;;
18754;SDS011;35061;47.664;9.166;2023-07-16T11:31:16;2.70;;;1.90;;
18754;SDS011;35061;47.664;9.166;2023-07-16T11:33:47;2.62;;;1.83;;
18754;SDS011;35061;47.664;9.166;2023-07-16T11:36:16;2.08;;;1.70;;
18754;SDS011;35061;47.664;9.166;2023-07-16T11:38:44;3.08;;;1.58;;
18754;SDS011;35061;47.664;9.166;2023-07-16T11:41:12;1.95;;;1.60;;
18754;SDS011;35061;47.664;9.166;2023-07-16T11:43:40;1.35;;;1.25;;
18754;SDS011;35061;47.664;9.166;2023-07-16T11:46:18;1.85;;;1.58;;
18754;SDS011;35061;47.664;9.166;2023-07-16T11:48:47;1.92;;;1.50;;
18754;SDS011;35061;47.664;9.166;2023-07-16T11:51:15;2.58;;;2.00;;
18754;SDS011;35061;47.664;9.166;2023-07-16T11:53:43;2.35;;;1.75;;
18754;SDS011;35061;47.664;9.166;2023-07-16T11:56:11;4.55;;;1.90;;
18754;SDS011;35061;47.664;9.166;2023-07-16T11:58:39;1.95;;;1.65;;
18754;SDS011;35061;47.664;9.166;2023-07-16T12:01:07;1.60;;;1.50;;
18754;SDS011;35061;47.664;9.166;2023-07-16T12:03:36;1.77;;;1.48;;
18754;SDS011;35061;47.664;9.166;2023-07-16T12:06:04;1.80;;;1.40;;
18754;SDS011;35061;47.664;9.166;2023-07-16T12:08:31;2.12;;;1.40;;
18754;SDS011;35061;47.664;9.166;2023-07-16T12:11:00;2.25;;;1.60;;
18754;SDS011;35061;47.664;9.166;2023-07-16T12:13:28;2.45;;;1.58;;
18754;SDS011;35061;47.664;9.166;2023-07-16T12:15:56;2.58;;;1.70;;
18754;SDS011;35061;47.664;9.166;2023-07-16T12:18:24;1.75;;;1.60;;
18754;SDS011;35061;47.664;9.166;2023-07-16T12:20:52;2.12;;;1.52;;
18754;SDS011;35061;47.664;9.166;2023-07-16T12:23:20;1.85;;;1.58;;
18754;SDS011;35061;47.664;9.166;2023-07-16T12:25:48;2.92;;;1.20;;
18754;SDS011;35061;47.664;9.166;2023-07-16T12:28:18;1.77;;;1.65;;
18754;SDS011;35061;47.664;9.166;2023-07-16T12:30:46;2.92;;;1.60;;
18754;SDS011;35061;47.664;9.166;2023-07-16T12:33:14;2.28;;;1.77;;
18754;SDS011;35061;47.664;9.166;2023-07-16T12:35:42;2.78;;;1.60;;
18754;SDS011;35061;47.664;9.166;2023-07-16T12:38:11;2.25;;;1.67;;
18754;SDS011;35061;47.664;9.166;2023-07-16T12:40:39;2.45;;;1.50;;
18754;SDS011;35061;47.664;9.166;2023-07-16T12:43:08;1.95;;;1.60;;
18754;SDS011;35061;47.664;9.166;2023-07-16T12:45:36;2.83;;;1.70;;
18754;SDS011;35061;47.664;9.166;2023-07-16T12:48:04;2.90;;;1.67;;
18754;SDS011;35061;47.664;9.166;2023-07-16T12:50:32;1.98;;;1.60;;
18754;SDS011;35061;47.664;9.166;2023-07-16T12:53:00;3.55;;;1.73;;
18754;SDS011;35061;47.664;9.166;2023-07-16T12:55:28;3.80;;;1.60;;
18754;SDS011;35061;47.664;9.166;2023-07-16T12:57:58;1.60;;;1.23;;
18754;SDS011;35061;47.664;9.166;2023-07-16T13:00:26;3.05;;;2.00;;
18754;SDS011;35061;47.664;9.166;2023-07-16T13:02:56;1.98;;;1.80;;
18754;SDS011;35061;47.664;9.166;2023-07-16T13:05:24;2.12;;;1.92;;
18754;SDS011;35061;47.664;9.166;2023-07-16T13:07:52;1.50;;;1.40;;
18754;SDS011;35061;47.664;9.166;2023-07-16T13:10:20;1.83;;;1.42;;
18754;SDS011;35061;47.664;9.166;2023-07-16T13:12:49;1.70;;;1.55;;
18754;SDS011;35061;47.664;9.166;2023-07-16T13:15:17;3.33;;;1.70;;
18754;SDS011;35061;47.664;9.166;2023-07-16T13:17:45;2.47;;;1.50;;
18754;SDS011;35061;47.664;9.166;2023-07-16T13:20:15;2.22;;;1.77;;
18754;SDS011;35061;47.664;9.166;2023-07-16T13:22:45;1.77;;;1.67;;
18754;SDS011;35061;47.664;9.166;2023-07-16T13:25:13;1.60;;;1.50;;
18754;SDS011;35061;47.664;9.166;2023-07-16T13:27:41;1.92;;;1.60;;
18754;SDS011;35061;47.664;9.166;2023-07-16T13:30:09;2.62;;;1.83;;
18754;SDS011;35061;47.664;9.166;2023-07-16T13:32:38;1.92;;;1.67;;
18754;SDS011;35061;47.664;9.166;2023-07-16T13:35:06;1.80;;;1.62;;
18754;SDS011;35061;47.664;9.166;2023-07-16T13:37:34;3.85;;;1.70;;
18754;SDS011;35061;47.664;9.166;2023-07-16T13:40:02;1.87;;;1.65;;
18754;SDS011;35061;47.664;9.166;2023-07-16T13:42:31;2.15;;;1.37;;
18754;SDS011;35061;47.664;9.166;2023-07-16T13:44:59;1.77;;;1.40;;
18754;SDS011;35061;47.664;9.166;2023-07-16T13:47:27;3.03;;;1.45;;
18754;SDS011;35061;47.664;9.166;2023-07-16T13:49:56;1.83;;;1.52;;
18754;SDS011;35061;47.664;9.166;2023-07-16T13:52:24;1.50;;;1.40;;
18754;SDS011;35061;47.664;9.166;2023-07-16T13:54:51;1.80;;;1.65;;
18754;SDS011;35061;47.664;9.166;2023-07-16T13:57:20;1.60;;;1.50;;
18754;SDS011;35061;47.664;9.166;2023-07-16T13:59:47;1.73;;;1.35;;
18754;SDS011;35061;47.664;9.166;2023-07-16T14:02:15;2.85;;;1.83;;
18754;SDS011;35061;47.664;9.166;2023-07-16T14:04:44;1.90;;;1.40;;
18754;SDS011;35061;47.664;9.166;2023-07-16T14:07:12;2.25;;;1.48;;
18754;SDS011;35061;47.664;9.166;2023-07-16T14:09:40;2.62;;;1.50;;
18754;SDS011;35061;47.664;9.166;2023-07-16T14:12:08;2.10;;;1.48;;
18754;SDS011;35061;47.664;9.166;2023-07-16T14:14:36;1.92;;;1.20;;
18754;SDS011;35061;47.664;9.166;2023-07-16T14:17:04;1.48;;;1.37;;
18754;SDS011;35061;47.664;9.166;2023-07-16T14:19:32;2.60;;;1.67;;
18754;SDS011;35061;47.664;9.166;2023-07-16T14:22:00;1.77;;;1.50;;
18754;SDS011;35061;47.664;9.166;2023-07-16T14:24:28;1.85;;;1.60;;
18754;SDS011;35061;47.664;9.166;2023-07-16T14:26:57;2.30;;;1.70;;
18754;SDS011;35061;47.664;9.166;2023-07-16T14:29:27;2.42;;;1.90;;
18754;SDS011;35061;47.664;9.166;2023-07-16T14:31:56;1.40;;;1.30;;
18754;SDS011;35061;47.664;9.166;2023-07-16T14:34:27;2.95;;;1.95;;
18754;SDS011;35061;47.664;9.166;2023-07-16T14:36:55;2.08;;;1.73;;
18754;SDS011;35061;47.664;9.166;2023-07-16T14:39:23;1.92;;;1.55;;
18754;SDS011;35061;47.664;9.166;2023-07-16T14:41:51;1.70;;;1.60;;
18754;SDS011;35061;47.664;9.166;2023-07-16T14:44:19;1.75;;;1.65;;
18754;SDS011;35061;47.664;9.166;2023-07-16T14:46:48;2.25;;;1.87;;
18754;SDS011;35061;47.664;9.166;2023-07-16T14:49:16;1.42;;;1.33;;
18754;SDS011;35061;47.664;9.166;2023-07-16T14:51:44;1.58;;;1.42;;
18754;SDS011;35061;47.664;9.166;2023-07-16T14:54:12;1.65;;;1.50;;
18754;SDS011;35061;47.664;9.166;2023-07-16T14:56:40;3.08;;;1.67;;
18754;SDS011;35061;47.664;9.166;2023-07-16T14:59:08;2.87;;;1.62;;